Terminal Aerodrome Forecast
Issued by NWS

Home | Current Version | Previous Version | Text Only | Print | Product List | Glossary On
Versions: 1 2 3 4 5 6 7 8 9 10 11 12 13 14
000
FTUS42 KMLB 192342 CCA
TAFSUA
TAF COR
KSUA 192342Z 2000/2024 10009KT P6SM FEW030 SCT250
     FM200200 10005KT P6SM FEW030 SCT250
     FM201000 VRB05KT P6SM VCSH SCT020 BKN250
     FM201500 12009KT P6SM VCTS SCT025CB SCT150 BKN200
     FM202100 10009KT P6SM SCT030 BKN150=

USA.gov is the U.S. government's official web portal to all federal, state and local government web resources and services.